Pagina principale
METAR-TAF:

METAR-TAF

Aeroporti :

Aeroporto di Shanghai-Pudong

Shanghai-Pudong, Cina

latitudine: 31-07N, longitudine: 121-46E, altezza: 4 m

Osservazione

Il bollettino è stato emesso 30 minuti fa, alle 06:00 UTC
Vento 8 kt da nord/nord-est, variando fra nord/nord-ovest e nord-est
Temperature 27°C
Umidità 74%
Pressione 1015 hPa
Visibilità: 7000 m
Nubi sparse ad un'altezza di 2600 ft

METAR: ZSPD 230600Z 02004MPS 340V050 7000 SCT026 27/22 Q1015 NOSIG

Ora: 14:30 (06:30 UTC)

Previsione

Il bollettino è stato emesso 3 ore e 4 minuti fa, alle 03:26 UTC
Previsione valida dal 23 alle 06 UTC al 24 alle 06 UTC
Vento 8 kt da nord/nord-est
Visibilità: 6000 m
Nuvoloso ad un'altezza di 1200 ft

TAF: ZSPD 230326Z 2306/2406 03004MPS 6000 BKN012 TX28/2306Z TN21/2321Z

Osservazioni e previsioni meteorologiche di più di 4000 aeroporti (messaggi METAR e TAF).

Le stazioni disponibili sono rappresentate dai dischi gialli e rossi sulla carta.

Puntare il mouse per vedere il nome della stazione.

Clicca sopra per visualizzare le osservazioni e previsioni meteorologiche.

Per cambiare la mappa : fare clic sui pulsanti verdi con una croce nera per ingrandire, il pulsante verde con un trattino per diminuire, o sulla freccia verde per le mappe adiacenti.


METAR-TAF: